This is the latest recevied weather packets stored in our database for station/object OH2CHY-10. If no packets are shown the sender has not sent any weather packets the latest 10 day(s).
| Time | Temp. | Humidity | Pressure | Rain* | Wind** | Luminosity | Snow |
|---|---|---|---|---|---|---|---|
| 1777796047 | 15° C | 52% | 1007.7 hPa | - | - | - | - |
| 1777795147 | 15.56° C | 52% | 1007.5 hPa | - | - | - | - |
| 1777794247 | 15° C | 55% | 1007.2 hPa | - | - | - | - |
| 1777793347 | 13.33° C | 58% | 1007.2 hPa | - | - | - | - |
| 1777792447 | 12.22° C | 60% | 1007.2 hPa | - | - | - | - |
| 1777791547 | 11.67° C | 61% | 1007.3 hPa | - | - | - | - |
| 1777790647 | 11.11° C | 59% | 1007.2 hPa | - | - | - | - |
| 1777789747 | 11.67° C | 56% | 1006.9 hPa | - | - | - | - |
| 1777788846 | 11.67° C | 56% | 1006.5 hPa | - | - | - | - |
| 1777787946 | 11.67° C | 57% | 1006.4 hPa | - | - | - | - |
| 1777787046 | 11.67° C | 57% | 1006.4 hPa | - | - | - | - |
| 1777786146 | 11.67° C | 57% | 1006.2 hPa | - | - | - | - |
| 1777785246 | 12.22° C | 56% | 1006.1 hPa | - | - | - | - |
| 1777784346 | 12.22° C | 56% | 1006 hPa | - | - | - | - |
| 1777783446 | 12.22° C | 56% | 1006 hPa | - | - | - | - |
| 1777782546 | 11.11° C | 57% | 1005.9 hPa | - | - | - | - |
| 1777781646 | 11.67° C | 53% | 1006 hPa | - | - | - | - |
| 1777780746 | 14.44° C | 48% | 1005.7 hPa | - | - | - | - |
| 1777779845 | 15° C | 51% | 1005.3 hPa | - | - | - | - |
| 1777778945 | 13.33° C | 54% | 1005.4 hPa | - | - | - | - |
| 1777778045 | 12.22° C | 61% | 1005.8 hPa | - | - | - | - |
| 1777777145 | 8.89° C | 68% | 1005.7 hPa | - | - | - | - |
| 1777776245 | 7.22° C | 70% | 1005.8 hPa | - | - | - | - |
| 1777775345 | 6.67° C | 71% | 1005.8 hPa | - | - | - | - |
| 1777774445 | 6.67° C | 71% | 1005.8 hPa | - | - | - | - |
* Rain since midnight (hover to see other rain measurements)
** Current wind speed in m/s (hover to see current wind gust speed)